Time;durP1;ratioP1;P1;durP2;ratioP2;P2;SDS_P1;SDS_P2;PMS_P1;PMS_P2;Temp;Humidity;BMP_temperature;BMP_pressure;BME280_temperature;BME280_humidity;BME280_pressure;Samples;Min_cycle;Max_cycle;Signal;HPM_P1;HPM_P2
2023/05/28 00:02:19;;;;;;;;;;;;;;;12.77;86.78;101976.09;10562548;28;20485;-72
2023/05/28 00:07:23;;;;;;;;;;;;;;;12.92;87.40;101985.00;10566574;28;19971;-71
2023/05/28 00:12:26;;;;;;;;;;;;;;;12.54;88.06;101977.19;10550953;28;20279;-72
2023/05/28 00:17:28;;;;;;;;;;;;;;;12.49;89.42;101973.94;10548791;28;20394;-72
2023/05/28 00:22:30;;;;;;;;;;;;;;;12.55;88.32;101976.25;10540109;28;19924;-72
2023/05/28 00:27:32;;;;;;;;;;;;;;;12.27;90.66;101981.94;10567120;28;19924;-68
2023/05/28 00:32:35;;;;;;;;;;;;;;;12.33;90.74;101994.78;10572337;28;19924;-67
2023/05/28 00:37:37;;;;;;;;;;;;;;;12.57;89.02;101987.53;10563533;28;20381;-68
2023/05/28 00:42:40;;;;;;;;;;;;;;;12.38;87.34;101995.44;10585843;28;20296;-68
2023/05/28 00:47:42;;;;;;;;;;;;;;;12.18;90.54;101998.97;10578066;28;20392;-69
2023/05/28 00:52:45;;;;;;;;;;;;;;;12.24;88.47;101995.22;10554099;22;19983;-67
2023/05/28 00:57:54;;;;;;;;;;;;;;;12.25;89.07;101995.16;10502033;28;19931;-67
2023/05/28 01:02:56;;;;;;;;;;;;;;;12.18;91.19;102001.59;10501842;28;19924;-67
2023/05/28 01:08:00;;;;;;;;;;;;;;;12.01;91.63;101993.63;10501373;28;19970;-67
2023/05/28 01:13:02;;;;;;;;;;;;;;;11.83;93.00;101993.47;10500889;28;20023;-67
2023/05/28 01:18:06;;;;;;;;;;;;;;;11.97;93.20;101992.91;10499764;28;20015;-67
2023/05/28 01:23:11;;;;;;;;;;;;;;;12.07;91.64;101995.97;10501046;28;19932;-67
2023/05/28 01:28:13;;;;;;;;;;;;;;;12.04;92.07;101998.75;10498664;28;20294;-67
2023/05/28 01:33:16;;;;;;;;;;;;;;;11.81;92.81;102000.56;10499518;28;20023;-67
2023/05/28 01:38:18;;;;;;;;;;;;;;;11.95;92.29;101992.09;10496374;28;19931;-67
2023/05/28 01:43:20;;;;;;;;;;;;;;;11.79;93.24;101994.53;10482850;28;19924;-67
2023/05/28 01:48:22;;;;;;;;;;;;;;;11.75;93.01;101990.34;10481400;28;20306;-67
2023/05/28 01:53:25;;;;;;;;;;;;;;;11.88;93.38;101990.63;10498971;28;19951;-67
2023/05/28 01:58:27;;;;;;;;;;;;;;;11.70;94.92;101989.66;10498842;28;19925;-67
2023/05/28 02:03:29;;;;;;;;;;;;;;;11.63;95.67;101980.34;10481111;28;20375;-67
2023/05/28 02:08:32;;;;;;;;;;;;;;;11.64;95.82;101980.28;10495252;28;20338;-67
2023/05/28 02:13:34;;;;;;;;;;;;;;;11.51;96.75;101973.88;10481865;28;20294;-67
2023/05/28 02:18:36;;;;;;;;;;;;;;;11.65;95.56;101973.25;10499363;28;19924;-67
2023/05/28 02:23:43;;;;;;;;;;;;;;;11.68;96.22;101963.53;10481199;28;19924;-67
2023/05/28 02:28:45;;;;;;;;;;;;;;;11.57;97.75;101965.75;10497805;28;19933;-67
2023/05/28 02:33:47;;;;;;;;;;;;;;;11.48;99.21;101971.38;10499352;28;19978;-67
2023/05/28 02:38:50;;;;;;;;;;;;;;;11.46;98.89;101973.22;10484420;28;19925;-67
2023/05/28 02:43:52;;;;;;;;;;;;;;;11.23;100.00;101971.53;10477759;28;19924;-67
2023/05/28 02:48:54;;;;;;;;;;;;;;;11.14;100.00;101978.03;10498688;28;20020;-67
2023/05/28 02:53:57;;;;;;;;;;;;;;;11.22;100.00;101983.81;10479570;28;20367;-67
2023/05/28 02:58:59;;;;;;;;;;;;;;;11.28;100.00;101987.94;10478031;28;19925;-67
2023/05/28 03:04:01;;;;;;;;;;;;;;;11.34;100.00;101987.69;10498004;28;20282;-67
2023/05/28 03:09:03;;;;;;;;;;;;;;;11.24;100.00;101984.59;10497974;28;20026;-68
2023/05/28 03:14:06;;;;;;;;;;;;;;;11.03;100.00;101978.47;10496674;28;20015;-68
2023/05/28 03:19:08;;;;;;;;;;;;;;;11.04;100.00;101979.31;10479813;28;19925;-67
2023/05/28 03:24:10;;;;;;;;;;;;;;;11.07;100.00;101981.81;10498262;28;19931;-67
2023/05/28 03:29:12;;;;;;;;;;;;;;;11.12;100.00;101983.31;10497620;28;19925;-68
2023/05/28 03:34:15;;;;;;;;;;;;;;;11.19;100.00;101991.78;10498378;28;19929;-68
2023/05/28 03:39:18;;;;;;;;;;;;;;;10.97;100.00;101997.06;10497133;28;19924;-68
2023/05/28 03:44:20;;;;;;;;;;;;;;;11.03;100.00;101988.94;10497893;28;19924;-67
2023/05/28 03:49:22;;;;;;;;;;;;;;;11.01;100.00;101990.78;10480035;28;19931;-67
2023/05/28 03:54:25;;;;;;;;;;;;;;;11.02;100.00;101989.00;10495363;28;19928;-67
2023/05/28 03:59:27;;;;;;;;;;;;;;;11.12;100.00;101985.09;10481206;28;19951;-67
2023/05/28 04:04:29;;;;;;;;;;;;;;;11.27;100.00;101992.34;10487460;28;19925;-67
2023/05/28 04:09:31;;;;;;;;;;;;;;;11.22;100.00;101994.28;10505242;28;19979;-67
2023/05/28 04:14:34;;;;;;;;;;;;;;;11.09;100.00;101993.94;10503537;28;20007;-67
2023/05/28 04:19:36;;;;;;;;;;;;;;;11.30;100.00;101991.38;10503374;28;19924;-67
2023/05/28 04:24:38;;;;;;;;;;;;;;;11.14;100.00;101997.22;10503381;28;19925;-67
2023/05/28 04:29:40;;;;;;;;;;;;;;;11.28;100.00;101993.19;10503635;28;19924;-67
2023/05/28 04:34:43;;;;;;;;;;;;;;;11.47;100.00;102015.09;10503416;28;19932;-67
2023/05/28 04:39:45;;;;;;;;;;;;;;;11.63;100.00;102001.34;10502764;28;19928;-67
2023/05/28 04:44:47;;;;;;;;;;;;;;;11.75;100.00;102013.06;10502031;28;19928;-67
2023/05/28 04:49:49;;;;;;;;;;;;;;;11.78;100.00;102020.81;10503788;28;19924;-67
2023/05/28 04:54:51;;;;;;;;;;;;;;;11.99;100.00;102021.72;10502520;28;19932;-68
2023/05/28 04:59:54;;;;;;;;;;;;;;;12.01;100.00;102022.50;10501412;28;20383;-67
2023/05/28 05:04:56;;;;;;;;;;;;;;;12.06;100.00;102018.72;10503142;28;19930;-67
2023/05/28 05:09:59;;;;;;;;;;;;;;;12.30;100.00;102015.09;10501284;28;20375;-67
2023/05/28 05:15:01;;;;;;;;;;;;;;;12.49;100.00;102018.59;10502767;28;19931;-67
2023/05/28 05:20:07;;;;;;;;;;;;;;;12.20;100.00;102027.78;10501918;28;19931;-67
2023/05/28 05:25:09;;;;;;;;;;;;;;;12.57;100.00;102026.94;10499830;28;19978;-67
2023/05/28 05:30:11;;;;;;;;;;;;;;;12.85;100.00;102040.59;10500861;28;19925;-67
2023/05/28 05:35:15;;;;;;;;;;;;;;;12.73;100.00;102042.03;10502189;28;19931;-67
2023/05/28 05:40:17;;;;;;;;;;;;;;;13.24;100.00;102031.72;10499650;28;19929;-67
2023/05/28 05:45:19;;;;;;;;;;;;;;;13.34;99.56;102025.94;10483030;28;19924;-67
2023/05/28 05:50:21;;;;;;;;;;;;;;;13.50;100.00;102022.53;10500495;28;19935;-67
2023/05/28 05:55:23;;;;;;;;;;;;;;;13.48;98.74;102020.00;10481625;28;19924;-67
2023/05/28 06:00:26;;;;;;;;;;;;;;;14.13;96.97;102032.47;10482954;28;19932;-67
2023/05/28 06:05:28;;;;;;;;;;;;;;;14.70;92.89;102023.34;10499024;28;19925;-67
2023/05/28 06:10:30;;;;;;;;;;;;;;;14.29;98.35;102032.53;10500258;28;19925;-67
2023/05/28 06:15:32;;;;;;;;;;;;;;;14.58;95.99;102020.41;10500232;28;19931;-67
2023/05/28 06:20:34;;;;;;;;;;;;;;;14.89;93.76;102023.16;10497552;28;19935;-67
2023/05/28 06:25:37;;;;;;;;;;;;;;;14.97;90.39;102020.94;10497061;28;20256;-67
2023/05/28 06:30:40;;;;;;;;;;;;;;;15.00;90.01;102018.97;10498399;28;19956;-67
2023/05/28 06:35:42;;;;;;;;;;;;;;;15.23;89.57;102016.78;10489207;28;20376;-67
2023/05/28 06:40:44;;;;;;;;;;;;;;;15.05;90.09;102011.66;10471374;28;19925;-67
2023/05/28 06:45:47;;;;;;;;;;;;;;;15.39;88.38;102024.69;10453533;28;20435;-67
2023/05/28 06:50:49;;;;;;;;;;;;;;;15.18;87.30;102018.84;10469974;28;20296;-67
2023/05/28 06:55:51;;;;;;;;;;;;;;;15.81;86.99;102020.47;10474627;28;19931;-66
2023/05/28 07:00:54;;;;;;;;;;;;;;;16.17;85.06;102016.53;10459353;28;19931;-67
2023/05/28 07:05:56;;;;;;;;;;;;;;;16.11;84.54;102025.69;10519233;28;19924;-66
2023/05/28 07:10:58;;;;;;;;;;;;;;;16.59;83.66;102028.00;10506967;28;19924;-67
2023/05/28 07:16:01;;;;;;;;;;;;;;;16.78;82.13;102030.34;10522287;28;19967;-67
2023/05/28 07:21:05;;;;;;;;;;;;;;;16.79;81.23;102042.59;10539946;28;19931;-67
2023/05/28 07:26:07;;;;;;;;;;;;;;;16.77;80.90;102030.44;10505237;28;19952;-67
2023/05/28 07:31:09;;;;;;;;;;;;;;;16.94;82.33;102032.88;10539321;28;20302;-67
2023/05/28 07:36:12;;;;;;;;;;;;;;;17.12;80.39;102036.13;10524055;28;20024;-66
2023/05/28 07:41:14;;;;;;;;;;;;;;;16.83;81.79;102038.81;10501093;28;19925;-67
2023/05/28 07:46:16;;;;;;;;;;;;;;;18.32;77.52;102046.53;10530015;28;19924;-67
2023/05/28 07:51:19;;;;;;;;;;;;;;;19.07;72.54;102042.97;10543070;28;19924;-67
2023/05/28 07:56:24;;;;;;;;;;;;;;;19.89;70.54;102038.66;10544463;28;19931;-67
2023/05/28 08:01:26;;;;;;;;;;;;;;;19.36;70.32;102036.44;10539764;28;19931;-66
2023/05/28 08:06:28;;;;;;;;;;;;;;;20.40;66.76;102040.84;10519604;28;19924;-67
2023/05/28 08:11:30;;;;;;;;;;;;;;;19.67;67.16;102043.78;10541039;28;19924;-66
2023/05/28 08:16:33;;;;;;;;;;;;;;;20.76;66.28;102037.09;10493897;28;19931;-67
2023/05/28 08:21:35;;;;;;;;;;;;;;;21.17;64.49;102036.47;10519183;28;20400;-67
2023/05/28 08:26:40;;;;;;;;;;;;;;;21.30;61.70;102034.47;10512690;28;19963;-67
2023/05/28 08:31:42;;;;;;;;;;;;;;;21.07;58.22;102023.91;10507560;28;19930;-67
2023/05/28 08:36:45;;;;;;;;;;;;;;;21.79;60.52;102017.03;10545331;28;19988;-67
2023/05/28 08:41:47;;;;;;;;;;;;;;;20.94;60.99;102024.06;10538471;28;19930;-67
2023/05/28 08:46:50;;;;;;;;;;;;;;;20.90;60.02;102021.81;10526740;28;20386;-67
2023/05/28 08:51:53;;;;;;;;;;;;;;;20.84;61.18;102019.63;10525356;28;19924;-67
2023/05/28 08:56:55;;;;;;;;;;;;;;;22.27;58.35;102012.88;10526387;28;19958;-66
2023/05/28 09:01:57;;;;;;;;;;;;;;;21.66;58.03;102013.72;10513571;28;20264;-67
2023/05/28 09:07:00;;;;;;;;;;;;;;;23.21;56.12;102000.97;10542476;28;19928;-67
2023/05/28 09:12:03;;;;;;;;;;;;;;;22.61;53.69;101994.75;10535524;28;20387;-67
2023/05/28 09:17:05;;;;;;;;;;;;;;;23.49;54.55;101999.25;10544259;28;20030;-62
2023/05/28 09:22:08;;;;;;;;;;;;;;;23.02;55.04;101994.63;10543362;28;19951;-62
2023/05/28 09:27:10;;;;;;;;;;;;;;;23.15;55.86;101989.88;10516332;28;19924;-62
2023/05/28 09:32:13;;;;;;;;;;;;;;;23.78;50.82;101995.66;10543732;28;19931;-62
2023/05/28 09:37:16;;;;;;;;;;;;;;;22.49;55.40;101989.66;10524913;28;19934;-62
2023/05/28 09:42:19;;;;;;;;;;;;;;;23.93;54.58;101994.22;10535303;28;19924;-62
2023/05/28 09:47:21;;;;;;;;;;;;;;;24.80;52.46;101990.22;10527508;28;20264;-63
2023/05/28 09:52:24;;;;;;;;;;;;;;;24.50;49.22;101983.38;10542793;28;20018;-65
2023/05/28 09:57:27;;;;;;;;;;;;;;;25.46;50.24;101981.91;10512772;28;19924;-65
2023/05/28 10:02:42;;;;;;;;;;;;;;;25.18;50.55;101979.31;10508935;28;19924;-65
2023/05/28 10:07:45;;;;;;;;;;;;;;;25.92;49.90;101991.41;10509322;28;19930;-65
2023/05/28 10:12:48;;;;;;;;;;;;;;;25.93;48.46;101986.84;10524166;28;19932;-66
2023/05/28 10:17:51;;;;;;;;;;;;;;;24.51;49.65;101989.56;10528122;28;19924;-66
2023/05/28 10:22:53;;;;;;;;;;;;;;;24.05;50.53;101981.50;10523665;28;19924;-65
2023/05/28 10:28:00;;;;;;;;;;;;;;;24.92;50.54;101981.97;10496730;28;19928;-66
2023/05/28 10:33:06;;;;;;;;;;;;;;;25.19;47.71;101981.00;10541398;28;19924;-66
2023/05/28 10:38:10;;;;;;;;;;;;;;;25.19;47.70;101981.84;10523222;28;19924;-65
2023/05/28 10:43:31;;;;;;;;;;;;;;;25.83;45.75;101976.25;10531344;28;19928;-67
2023/05/28 10:48:37;;;;;;;;;;;;;;;26.56;45.84;101972.13;10522015;28;19971;-67
2023/05/28 10:53:39;;;;;;;;;;;;;;;26.42;45.29;101986.22;10518325;28;19924;-67
2023/05/28 10:58:42;;;;;;;;;;;;;;;26.92;42.31;101973.75;10519969;28;20011;-67
2023/05/28 11:03:45;;;;;;;;;;;;;;;28.27;42.11;101971.25;10489324;28;19924;-67
2023/05/28 11:08:48;;;;;;;;;;;;;;;26.75;42.31;101971.03;10521654;28;20444;-67
2023/05/28 11:13:50;;;;;;;;;;;;;;;26.27;44.78;101973.41;10539499;28;20532;-67
2023/05/28 11:19:19;;;;;;;;;;;;;;;26.01;44.90;101981.56;10510061;28;19924;-67
2023/05/28 11:24:21;;;;;;;;;;;;;;;26.47;44.19;101979.34;10480449;28;19924;-66
2023/05/28 11:29:23;;;;;;;;;;;;;;;26.71;46.79;101979.59;10498382;28;19925;-67
2023/05/28 11:34:26;;;;;;;;;;;;;;;26.90;44.47;101967.69;10483435;28;19936;-67
2023/05/28 11:39:28;;;;;;;;;;;;;;;26.92;41.74;101954.94;10497147;28;20405;-67
2023/05/28 11:44:30;;;;;;;;;;;;;;;27.83;42.01;101969.06;10479385;28;20015;-63
2023/05/28 11:49:32;;;;;;;;;;;;;;;27.85;40.30;101957.09;10497130;28;20399;-64
2023/05/28 11:54:35;;;;;;;;;;;;;;;26.54;41.60;101966.09;10481477;28;20041;-63
2023/05/28 11:59:38;;;;;;;;;;;;;;;27.21;41.22;101965.16;10497531;28;19925;-64
2023/05/28 12:04:59;;;;;;;;;;;;;;;27.89;41.00;101973.75;10530656;28;20458;-63
2023/05/28 12:10:05;;;;;;;;;;;;;;;28.42;41.04;101976.72;10539334;28;19946;-63
2023/05/28 12:15:07;;;;;;;;;;;;;;;28.38;41.10;101967.31;10520666;28;20450;-63
2023/05/28 12:20:12;;;;;;;;;;;;;;;28.48;39.82;101965.22;10523540;28;19931;-63
2023/05/28 12:25:15;;;;;;;;;;;;;;;27.43;42.42;101963.63;10491153;28;19968;-63
2023/05/28 12:30:17;;;;;;;;;;;;;;;28.08;42.52;101964.47;10491542;28;19924;-63
2023/05/28 12:35:19;;;;;;;;;;;;;;;28.25;40.55;101962.53;10501861;28;19925;-63
2023/05/28 12:40:21;;;;;;;;;;;;;;;29.92;38.60;101958.00;10503302;28;19925;-63
2023/05/28 12:45:24;;;;;;;;;;;;;;;27.36;39.73;101952.72;10503799;28;19925;-63
2023/05/28 12:50:26;;;;;;;;;;;;;;;27.19;40.19;101962.63;10488159;28;20023;-63
2023/05/28 12:55:28;;;;;;;;;;;;;;;27.45;38.05;101958.91;10488484;28;20356;-63
2023/05/28 13:00:30;;;;;;;;;;;;;;;27.67;39.05;101948.44;10487973;28;19932;-62
2023/05/28 13:05:33;;;;;;;;;;;;;;;27.70;40.36;101950.78;10524088;28;20000;-63
2023/05/28 13:10:35;;;;;;;;;;;;;;;28.59;40.39;101939.78;10508903;22;20371;-74
2023/05/28 13:15:38;;;;;;;;;;;;;;;27.40;39.96;101934.38;10517556;28;20379;-74
2023/05/28 13:20:40;;;;;;;;;;;;;;;28.72;38.72;101929.22;10502395;28;19931;-74
2023/05/28 13:25:43;;;;;;;;;;;;;;;26.24;41.24;101927.28;10502185;28;19978;-73
2023/05/28 13:30:45;;;;;;;;;;;;;;;28.67;38.64;101929.75;10500900;28;20007;-74
2023/05/28 13:35:47;;;;;;;;;;;;;;;27.24;38.40;101925.31;10501979;28;19928;-74
2023/05/28 13:40:50;;;;;;;;;;;;;;;28.22;39.40;101917.91;10500260;28;19924;-74
2023/05/28 13:45:52;;;;;;;;;;;;;;;27.11;38.76;101916.13;10483718;28;19924;-74
2023/05/28 13:50:54;;;;;;;;;;;;;;;26.49;40.54;101909.38;10495171;28;19932;-73
2023/05/28 13:55:57;;;;;;;;;;;;;;;28.07;39.69;101906.25;10515875;28;20307;-73
2023/05/28 14:01:00;;;;;;;;;;;;;;;28.59;38.96;101896.66;10492134;28;20401;-73
2023/05/28 14:06:03;;;;;;;;;;;;;;;27.24;39.97;101905.69;10498522;28;20275;-74
2023/05/28 14:11:05;;;;;;;;;;;;;;;29.12;38.04;101902.91;10497032;28;19924;-74
2023/05/28 14:16:08;;;;;;;;;;;;;;;27.86;40.23;101904.16;10500279;28;19928;-74
2023/05/28 14:21:11;;;;;;;;;;;;;;;27.18;41.29;101901.81;10495838;28;20374;-73
2023/05/28 14:26:13;;;;;;;;;;;;;;;26.75;40.98;101900.34;10499100;28;20284;-74
2023/05/28 14:31:15;;;;;;;;;;;;;;;25.57;39.99;101899.38;10511828;28;19924;-74
2023/05/28 14:36:17;;;;;;;;;;;;;;;26.42;42.11;101903.00;10498592;28;19951;-74
2023/05/28 14:41:20;;;;;;;;;;;;;;;26.65;41.61;101901.38;10498361;28;19939;-74
2023/05/28 14:46:22;;;;;;;;;;;;;;;26.21;43.02;101900.75;10478603;28;20015;-73
2023/05/28 14:51:24;;;;;;;;;;;;;;;25.37;40.62;101900.59;10498952;28;19924;-74
2023/05/28 14:56:26;;;;;;;;;;;;;;;26.64;42.32;101904.22;10497027;28;19931;-73
2023/05/28 15:01:29;;;;;;;;;;;;;;;25.70;43.32;101901.56;10495947;28;19928;-73
2023/05/28 15:06:32;;;;;;;;;;;;;;;26.43;41.00;101900.16;10484713;28;19967;-73
2023/05/28 15:11:34;;;;;;;;;;;;;;;25.68;43.85;101908.13;10513465;28;19956;-73
2023/05/28 15:16:36;;;;;;;;;;;;;;;26.01;43.95;101892.16;10497353;28;19924;-73
2023/05/28 15:21:39;;;;;;;;;;;;;;;25.72;44.18;101904.09;10498170;28;19974;-73
2023/05/28 15:26:41;;;;;;;;;;;;;;;25.24;44.22;101897.47;10497436;28;20375;-73
2023/05/28 15:31:46;;;;;;;;;;;;;;;26.33;43.14;101883.34;10496105;28;19925;-73
2023/05/28 15:36:49;;;;;;;;;;;;;;;26.67;41.39;101879.72;10495108;28;19925;-73
2023/05/28 15:41:51;;;;;;;;;;;;;;;27.11;43.73;101884.69;10496543;28;20012;-73
2023/05/28 15:46:53;;;;;;;;;;;;;;;25.90;41.02;101883.38;10465737;28;19960;-74
2023/05/28 15:51:57;;;;;;;;;;;;;;;27.36;40.97;101882.81;10496325;28;19972;-73
2023/05/28 15:56:59;;;;;;;;;;;;;;;25.69;42.88;101888.34;10501110;28;19928;-73
2023/05/28 16:02:02;;;;;;;;;;;;;;;26.35;40.70;101875.97;10504900;28;19983;-73
2023/05/28 16:07:05;;;;;;;;;;;;;;;26.56;41.09;101880.84;10505542;28;19924;-73
2023/05/28 16:12:08;;;;;;;;;;;;;;;26.50;41.91;101866.25;10485873;28;19931;-73
2023/05/28 16:17:10;;;;;;;;;;;;;;;26.59;42.23;101875.13;10487187;28;19930;-73
2023/05/28 16:22:13;;;;;;;;;;;;;;;25.85;43.14;101876.84;10483711;28;19931;-73
2023/05/28 16:27:15;;;;;;;;;;;;;;;24.97;43.83;101883.22;10493071;28;20007;-73
2023/05/28 16:32:18;;;;;;;;;;;;;;;25.83;41.65;101873.47;10503255;28;19928;-73
2023/05/28 16:37:20;;;;;;;;;;;;;;;25.32;42.86;101874.25;10501305;28;20291;-73
2023/05/28 16:42:23;;;;;;;;;;;;;;;25.25;43.45;101875.00;10503223;28;20278;-73
2023/05/28 16:47:26;;;;;;;;;;;;;;;25.81;41.14;101878.19;10502742;28;19972;-73
2023/05/28 16:52:28;;;;;;;;;;;;;;;25.76;43.24;101879.47;10501474;28;19931;-72
2023/05/28 16:57:31;;;;;;;;;;;;;;;25.31;43.72;101874.44;10490554;28;19932;-72
2023/05/28 17:02:33;;;;;;;;;;;;;;;24.79;43.16;101873.38;10502705;28;20409;-72
2023/05/28 17:07:38;;;;;;;;;;;;;;;24.05;43.80;101879.84;10499790;28;19925;-72
2023/05/28 17:12:40;;;;;;;;;;;;;;;24.24;41.57;101871.72;10502477;28;20343;-72
2023/05/28 17:17:42;;;;;;;;;;;;;;;23.97;42.75;101874.41;10502417;28;19931;-72
2023/05/28 17:22:45;;;;;;;;;;;;;;;23.32;43.27;101884.09;10488870;28;19971;-71
2023/05/28 17:27:47;;;;;;;;;;;;;;;23.45;42.37;101882.94;10501723;28;20291;-72
2023/05/28 17:32:49;;;;;;;;;;;;;;;23.27;42.28;101883.69;10502097;28;19924;-71
2023/05/28 17:37:52;;;;;;;;;;;;;;;23.04;42.91;101901.00;10514623;28;19963;-72
2023/05/28 17:42:54;;;;;;;;;;;;;;;23.15;42.13;101893.72;10501019;28;20387;-71
2023/05/28 17:47:57;;;;;;;;;;;;;;;23.01;43.15;101899.47;10501048;28;20294;-72
2023/05/28 17:52:59;;;;;;;;;;;;;;;22.14;42.78;101906.44;10495068;28;19935;-71
2023/05/28 17:58:01;;;;;;;;;;;;;;;21.50;41.09;101911.13;10501093;28;19924;-74
2023/05/28 18:03:03;;;;;;;;;;;;;;;22.41;43.21;101903.16;10500745;28;19924;-71
2023/05/28 18:08:06;;;;;;;;;;;;;;;22.30;43.18;101921.09;10481417;28;19925;-70
2023/05/28 18:13:08;;;;;;;;;;;;;;;21.70;45.09;101925.38;10495931;28;19928;-71
2023/05/28 18:18:10;;;;;;;;;;;;;;;21.42;48.56;101937.53;10499383;28;19930;-71
2023/05/28 18:23:13;;;;;;;;;;;;;;;21.20;51.66;101935.00;10497713;28;20383;-71
2023/05/28 18:28:15;;;;;;;;;;;;;;;20.80;53.83;101930.38;10499030;28;20024;-71
2023/05/28 18:33:17;;;;;;;;;;;;;;;20.58;54.84;101956.06;10486703;28;19931;-71
2023/05/28 18:38:20;;;;;;;;;;;;;;;20.39;54.65;101970.00;10499432;28;19924;-70
2023/05/28 18:43:22;;;;;;;;;;;;;;;20.14;56.15;101985.28;10492217;28;19931;-70
2023/05/28 18:48:24;;;;;;;;;;;;;;;19.87;55.95;101990.97;10479057;28;19924;-70
2023/05/28 18:53:26;;;;;;;;;;;;;;;19.39;56.02;101999.88;10497713;28;19931;-71
2023/05/28 18:58:29;;;;;;;;;;;;;;;19.11;56.35;102006.41;10496343;28;19929;-70
2023/05/28 19:03:31;;;;;;;;;;;;;;;18.95;57.22;101998.75;10496813;28;19931;-70
2023/05/28 19:08:35;;;;;;;;;;;;;;;19.17;56.40;102008.63;10485853;28;19931;-71
2023/05/28 19:13:37;;;;;;;;;;;;;;;18.51;58.57;102018.75;10494535;28;20414;-70
2023/05/28 19:18:39;;;;;;;;;;;;;;;18.23;59.87;102033.94;10497378;28;20015;-70
2023/05/28 19:23:41;;;;;;;;;;;;;;;18.20;60.97;102042.94;10498194;28;19924;-70
2023/05/28 19:28:44;;;;;;;;;;;;;;;17.72;61.28;102039.19;10496382;28;19925;-70
2023/05/28 19:33:47;;;;;;;;;;;;;;;17.83;62.73;102040.16;10502982;28;20376;-70
2023/05/28 19:38:49;;;;;;;;;;;;;;;17.81;62.12;102051.84;10504752;28;19928;-70
2023/05/28 19:43:51;;;;;;;;;;;;;;;17.47;63.83;102056.75;10505209;28;19924;-70
2023/05/28 19:48:55;;;;;;;;;;;;;;;16.95;65.67;102068.97;10505382;28;20151;-70
2023/05/28 19:53:57;;;;;;;;;;;;;;;16.83;65.39;102077.66;10485679;28;19967;-71
2023/05/28 19:59:00;;;;;;;;;;;;;;;17.18;65.35;102080.72;10505900;28;19964;-70
2023/05/28 20:04:02;;;;;;;;;;;;;;;16.92;66.61;102095.59;10503003;28;19931;-71
2023/05/28 20:09:04;;;;;;;;;;;;;;;17.02;66.51;102096.72;10497861;28;19931;-70
2023/05/28 20:14:06;;;;;;;;;;;;;;;16.87;66.71;102105.63;10500739;28;20372;-70
2023/05/28 20:19:09;;;;;;;;;;;;;;;16.64;66.34;102107.91;10494285;28;20008;-70
2023/05/28 20:24:11;;;;;;;;;;;;;;;16.38;68.27;102117.44;10502361;28;20286;-70
2023/05/28 20:29:14;;;;;;;;;;;;;;;16.43;68.40;102109.22;10504255;28;20011;-70
2023/05/28 20:34:16;;;;;;;;;;;;;;;16.04;70.00;102127.41;10504084;28;20015;-70
2023/05/28 20:39:18;;;;;;;;;;;;;;;16.03;69.50;102127.47;10500440;28;19924;-70
2023/05/28 20:44:21;;;;;;;;;;;;;;;16.15;70.36;102138.19;10501503;28;20015;-70
2023/05/28 20:49:23;;;;;;;;;;;;;;;15.76;71.47;102141.38;10499941;28;19924;-70
2023/05/28 20:54:26;;;;;;;;;;;;;;;15.96;71.59;102140.19;10492376;28;20372;-69
2023/05/28 20:59:28;;;;;;;;;;;;;;;15.85;72.01;102142.63;10486470;28;20373;-69
2023/05/28 21:04:31;;;;;;;;;;;;;;;15.55;72.77;102149.56;10496705;28;20382;-70
2023/05/28 21:09:33;;;;;;;;;;;;;;;15.68;72.99;102156.75;10499469;28;19925;-69
2023/05/28 21:14:35;;;;;;;;;;;;;;;15.56;73.44;102169.72;10502122;28;19924;-70
2023/05/28 21:19:37;;;;;;;;;;;;;;;15.55;74.22;102164.53;10517001;28;19925;-69
2023/05/28 21:24:39;;;;;;;;;;;;;;;15.21;75.59;102175.19;10500922;28;19928;-69
2023/05/28 21:29:42;;;;;;;;;;;;;;;15.46;75.02;102163.25;10501663;28;20619;-69
2023/05/28 21:34:44;;;;;;;;;;;;;;;15.55;76.71;102156.59;10483648;28;19924;-70
2023/05/28 21:39:47;;;;;;;;;;;;;;;15.45;76.41;102166.84;10500882;28;19931;-70
2023/05/28 21:44:50;;;;;;;;;;;;;;;14.88;78.92;102179.66;10483763;28;19928;-70
2023/05/28 21:49:52;;;;;;;;;;;;;;;14.91;80.62;102176.84;10499974;28;19980;-70
2023/05/28 21:54:55;;;;;;;;;;;;;;;14.71;82.51;102180.53;10468307;28;19925;-70
2023/05/28 21:59:57;;;;;;;;;;;;;;;14.46;85.56;102184.44;10500213;28;20367;-70
2023/05/28 22:04:59;;;;;;;;;;;;;;;14.58;84.38;102188.22;10498969;28;19928;-70
2023/05/28 22:10:02;;;;;;;;;;;;;;;13.97;88.66;102186.91;10484929;28;19931;-70
2023/05/28 22:15:04;;;;;;;;;;;;;;;13.67;90.50;102192.78;10499565;28;19925;-70
2023/05/28 22:20:09;;;;;;;;;;;;;;;14.01;90.61;102175.31;10500000;28;19957;-70
2023/05/28 22:25:12;;;;;;;;;;;;;;;13.89;91.07;102182.06;10498694;28;19931;-70
2023/05/28 22:30:14;;;;;;;;;;;;;;;14.06;90.97;102184.69;10513899;28;19931;-70
2023/05/28 22:35:16;;;;;;;;;;;;;;;13.70;93.50;102184.72;10494657;28;20011;-70
2023/05/28 22:40:19;;;;;;;;;;;;;;;13.65;94.13;102195.47;10481189;28;19931;-70
2023/05/28 22:45:21;;;;;;;;;;;;;;;13.07;96.89;102196.38;10492139;28;19925;-70
2023/05/28 22:50:23;;;;;;;;;;;;;;;13.60;94.75;102202.75;10497006;28;20302;-69
2023/05/28 22:55:26;;;;;;;;;;;;;;;14.04;89.75;102198.88;10499048;28;19924;-70
2023/05/28 23:00:29;;;;;;;;;;;;;;;13.77;90.12;102198.41;10498399;28;20352;-70
2023/05/28 23:05:31;;;;;;;;;;;;;;;13.46;94.29;102198.13;10496202;28;19925;-70
2023/05/28 23:10:34;;;;;;;;;;;;;;;13.24;93.26;102221.06;10496765;28;19924;-70
2023/05/28 23:15:36;;;;;;;;;;;;;;;13.11;94.12;102221.63;10513487;28;19924;-70
2023/05/28 23:20:38;;;;;;;;;;;;;;;13.01;93.79;102225.56;10496595;28;20375;-70
2023/05/28 23:25:40;;;;;;;;;;;;;;;13.28;90.44;102230.50;10497221;28;20052;-69
2023/05/28 23:30:43;;;;;;;;;;;;;;;13.12;90.68;102233.00;10482272;28;19925;-69
2023/05/28 23:35:45;;;;;;;;;;;;;;;12.89;89.86;102236.66;10496700;28;19939;-69
2023/05/28 23:40:47;;;;;;;;;;;;;;;12.74;90.11;102235.53;10496196;28;20295;-70
2023/05/28 23:45:50;;;;;;;;;;;;;;;12.81;86.61;102247.53;10497934;28;19934;-69
2023/05/28 23:50:52;;;;;;;;;;;;;;;11.95;89.40;102249.31;10496102;28;20368;-70
2023/05/28 23:55:55;;;;;;;;;;;;;;;12.21;89.91;102257.91;10497668;28;19979;-69
